Airfield :
LOGIN :

Register | Disclaimer

   EN    FR    IT 

 










Legend :    VFR   Marginal VFR   IFR   Intensive IFR   Very Intensive IFR
Visi :
Ceiling :
>= 8 km
>= 3000ft
5 to 8 km
1000 to 3000 ft
1500m to 5 km
500 to 1000 ft
800 to 1500m
200 to 500 ft
< 800m
< 200 ft
Symbols :   Thunderstorms  Fog  Heavy snow  Heavy precipitations  Wind > 20 kt
SIGMETs :     Misc.  Thunderstorms  Icing  Turbulence  Mountain Waves  Volcanic Ashes






- Airport Elevation : 29 ft


LIRM - Grazzanise Caserta

CURRENT METAR :
  • 011155Z /////KT 9999 FEW030 SCT080 33/21 Q1010 RMK SCT VIS MIN 9999 WIND THR06 20017KT BLU

EXPIRED METARs :
  • 011055Z /////KT 9999 FEW030 SCT070 33/22 Q1010
  • 010955Z /////KT 9999 FEW080 33/19 Q1010

TAF TAF LIRM
Valid from the 01 at 12:00 until the 01 at 21:00 UTC


011100Z 0112/0121 22017KT 9999 FEW030 SCT060
TEMPO 0112/0119 22017G27KT
TEMPO 0112/0115 RA SCT020 SCT040



MET'MAP, your aeronautical weather chart ! - Copyright ORBIFLY December 2007 - Disclaimer

ORBIFLY MET'MAP TEAM :

Programming & Development : Alexandra Zaïnal
Concept & original design : Baudouin d'Aumeries
Assistance for programming : Marc-Olivier Méhu
Technical & hardware support : Manuel Goepfert

Contact : metmap@orbifly.com




SOURCES & CREDITS :

   NOAA